createdAt,value
2018-06-16T00:01:36.896Z,91.20
2018-06-16T00:04:06.495Z,91.40
2018-06-16T00:06:36.044Z,91.60
2018-06-16T00:09:07.477Z,91.80
2018-06-16T00:11:36.980Z,92.00
2018-06-16T00:14:06.506Z,92.00
2018-06-16T00:16:36.093Z,92.00
2018-06-16T00:21:34.650Z,92.40
2018-06-16T00:24:04.167Z,93.00
2018-06-16T00:26:33.654Z,93.10
2018-06-16T00:29:03.118Z,93.50
2018-06-16T00:31:32.608Z,93.10
2018-06-16T00:34:02.075Z,93.10
2018-06-16T00:36:31.621Z,93.30
2018-06-16T00:39:01.094Z,93.30
2018-06-16T00:41:30.619Z,93.30
2018-06-16T00:44:00.079Z,93.50
2018-06-16T00:46:30.492Z,93.80
2018-06-16T00:48:59.986Z,94.00
2018-06-16T00:53:58.525Z,94.10
2018-06-16T00:56:28.230Z,94.00
2018-06-16T00:58:57.697Z,94.20
2018-06-16T01:01:27.163Z,94.20
2018-06-16T01:03:56.661Z,94.10
2018-06-16T01:06:26.136Z,94.20
2018-06-16T01:08:55.623Z,94.30
2018-06-16T01:13:54.188Z,95.00
2018-06-16T01:16:23.732Z,95.40
2018-06-16T01:18:53.118Z,95.70
2018-06-16T01:21:22.595Z,95.70
2018-06-16T01:23:52.084Z,95.30
2018-06-16T01:26:21.567Z,95.20
2018-06-16T01:28:51.041Z,95.30
2018-06-16T01:31:20.469Z,95.00
2018-06-16T01:33:49.938Z,94.90
2018-06-16T01:36:19.446Z,94.70
2018-06-16T01:38:48.926Z,94.60
2018-06-16T01:41:18.439Z,94.90
2018-06-16T01:43:47.909Z,95.10
2018-06-16T01:46:17.384Z,94.90
2018-06-16T01:48:46.861Z,95.00
2018-06-16T01:51:16.366Z,94.90
2018-06-16T01:53:45.835Z,94.60
2018-06-16T01:56:16.170Z,94.90
2018-06-16T01:58:45.640Z,94.90
2018-06-16T02:01:15.135Z,94.90
2018-06-16T02:03:44.614Z,94.90
2018-06-16T02:06:14.587Z,94.70
2018-06-16T02:08:44.045Z,94.60
2018-06-16T02:11:13.513Z,94.50
2018-06-16T02:16:12.035Z,94.70
2018-06-16T02:18:41.555Z,94.90
2018-06-16T02:21:11.063Z,94.90
2018-06-16T02:23:40.535Z,94.70
2018-06-16T02:26:10.020Z,94.60
2018-06-16T02:28:39.511Z,94.50
2018-06-16T02:31:09.003Z,94.50
2018-06-16T02:33:38.490Z,94.70
2018-06-16T02:36:07.966Z,95.00
2018-06-16T02:38:37.482Z,95.20
2018-06-16T02:41:06.958Z,95.20
2018-06-16T02:43:36.439Z,95.20
2018-06-16T02:46:06.028Z,95.20
2018-06-16T02:48:35.480Z,95.30
2018-06-16T02:51:04.990Z,95.10
2018-06-16T02:53:34.492Z,95.20
2018-06-16T02:56:03.952Z,95.10
2018-06-16T02:58:33.449Z,95.10
2018-06-16T03:01:02.916Z,95.10
2018-06-16T03:03:32.410Z,95.10
2018-06-16T03:06:01.977Z,95.20
2018-06-16T03:11:00.464Z,95.00
2018-06-16T03:13:29.945Z,95.00
2018-06-16T03:15:59.416Z,95.10
2018-06-16T03:18:28.887Z,95.00
2018-06-16T03:20:58.364Z,95.00
2018-06-16T03:23:28.010Z,95.00
2018-06-16T03:25:57.454Z,95.30
2018-06-16T03:28:26.935Z,95.30
2018-06-16T03:30:56.396Z,95.10
2018-06-16T03:33:25.859Z,95.40
2018-06-16T03:35:55.311Z,95.30
2018-06-16T03:40:54.199Z,95.60
2018-06-16T03:43:23.731Z,95.50
2018-06-16T03:45:53.329Z,95.90
2018-06-16T03:48:22.785Z,95.80
2018-06-16T03:50:52.290Z,95.80
2018-06-16T03:53:21.747Z,95.70
2018-06-16T03:55:51.216Z,95.30
2018-06-16T03:58:20.678Z,95.20
2018-06-16T04:00:50.157Z,95.10
2018-06-16T04:03:19.639Z,95.20
2018-06-16T04:05:49.134Z,94.90
2018-06-16T04:08:18.607Z,95.00
2018-06-16T04:10:48.151Z,95.70
2018-06-16T04:13:17.654Z,95.60
2018-06-16T04:15:47.135Z,95.00
2018-06-16T04:18:16.674Z,95.00
2018-06-16T04:20:46.179Z,95.00
2018-06-16T04:23:15.690Z,95.60
2018-06-16T04:25:45.136Z,95.60
2018-06-16T04:28:15.056Z,95.10
2018-06-16T04:30:44.692Z,95.30
2018-06-16T04:33:14.344Z,95.30
2018-06-16T04:35:43.802Z,95.10
2018-06-16T04:38:13.286Z,95.10
2018-06-16T04:40:42.763Z,95.10
2018-06-16T04:43:12.329Z,95.00
2018-06-16T04:45:41.850Z,95.30
2018-06-16T04:48:11.266Z,95.70
2018-06-16T04:50:40.730Z,94.90
2018-06-16T04:53:10.231Z,94.70
2018-06-16T04:55:39.787Z,94.80
2018-06-16T04:58:09.266Z,94.80
2018-06-16T05:00:38.751Z,94.90
2018-06-16T05:03:08.219Z,94.90
2018-06-16T05:05:37.711Z,94.80
2018-06-16T05:08:07.223Z,94.80
2018-06-16T05:10:36.731Z,94.70
2018-06-16T05:13:06.206Z,94.50
2018-06-16T05:15:35.724Z,95.00
2018-06-16T05:18:05.286Z,95.00
2018-06-16T05:20:34.778Z,95.20
2018-06-16T05:23:04.294Z,94.50
2018-06-16T05:25:33.771Z,93.80
2018-06-16T05:28:03.290Z,93.90
2018-06-16T05:30:32.867Z,94.30
2018-06-16T05:33:02.335Z,93.80
2018-06-16T05:35:31.837Z,93.10
2018-06-16T05:38:01.302Z,93.60
2018-06-16T05:42:59.807Z,93.10
2018-06-16T05:45:29.263Z,92.70
2018-06-16T05:47:58.803Z,92.70
2018-06-16T05:50:28.270Z,91.80
2018-06-16T05:52:57.830Z,91.50
2018-06-16T05:55:27.318Z,91.20
2018-06-16T06:00:25.886Z,91.50
2018-06-16T06:02:55.372Z,89.90
2018-06-16T06:05:24.871Z,90.10
2018-06-16T06:07:54.358Z,89.00
2018-06-16T06:10:23.905Z,87.10
2018-06-16T06:12:53.319Z,85.90
2018-06-16T06:15:22.911Z,86.60
2018-06-16T06:17:52.421Z,86.00
2018-06-16T06:20:21.942Z,85.30
2018-06-16T06:22:51.445Z,85.10
2018-06-16T06:25:20.924Z,84.30
2018-06-16T06:27:50.408Z,85.60
2018-06-16T06:30:20.164Z,82.90
2018-06-16T06:32:49.634Z,82.50
2018-06-16T06:35:19.132Z,82.10
2018-06-16T06:37:48.666Z,80.90
2018-06-16T06:40:18.290Z,79.40
2018-06-16T06:42:47.798Z,80.00
2018-06-16T06:45:17.273Z,77.70
2018-06-16T06:47:46.803Z,77.50
2018-06-16T06:50:16.311Z,76.20
2018-06-16T06:52:45.792Z,77.30
2018-06-16T06:55:15.325Z,76.80
2018-06-16T06:57:44.856Z,76.00
2018-06-16T07:00:14.406Z,77.70
2018-06-16T07:02:43.868Z,73.50
2018-06-16T07:05:13.475Z,74.20
2018-06-16T07:07:42.979Z,75.50
2018-06-16T07:10:12.547Z,73.80
2018-06-16T07:12:42.045Z,73.00
2018-06-16T07:15:11.542Z,74.50
2018-06-16T07:17:41.039Z,73.00
2018-06-16T07:20:10.516Z,73.20
2018-06-16T07:22:40.046Z,70.80
2018-06-16T07:25:09.514Z,70.00
2018-06-16T07:27:39.068Z,70.90
2018-06-16T07:30:08.544Z,70.90
2018-06-16T07:32:38.021Z,68.50
2018-06-16T07:35:07.517Z,68.80
2018-06-16T07:37:37.024Z,66.90
2018-06-16T07:40:06.494Z,68.40
2018-06-16T07:42:36.000Z,68.40
2018-06-16T07:45:06.566Z,67.60
2018-06-16T07:47:36.053Z,69.40
2018-06-16T07:50:05.555Z,68.40
2018-06-16T07:52:35.044Z,67.00
2018-06-16T07:55:04.583Z,63.20
2018-06-16T07:57:34.091Z,64.90
2018-06-16T08:00:03.724Z,63.20
2018-06-16T08:02:33.257Z,63.50
2018-06-16T08:05:02.857Z,64.00
2018-06-16T08:07:32.372Z,62.90
2018-06-16T08:10:01.927Z,62.60
2018-06-16T08:12:31.445Z,62.70
2018-06-16T08:15:01.007Z,63.00
2018-06-16T08:17:30.565Z,62.10
2018-06-16T08:20:00.045Z,63.00
2018-06-16T08:22:29.519Z,62.00
2018-06-16T08:24:59.023Z,60.90
2018-06-16T08:27:28.532Z,64.20
2018-06-16T08:29:58.032Z,61.60
2018-06-16T08:32:27.559Z,62.90
2018-06-16T08:34:57.051Z,61.00
2018-06-16T08:37:26.648Z,61.10
2018-06-16T08:39:56.147Z,60.40
2018-06-16T08:42:25.624Z,61.60
2018-06-16T08:44:55.107Z,59.60
2018-06-16T08:47:24.660Z,61.40
2018-06-16T08:49:54.272Z,59.90
2018-06-16T08:52:23.930Z,57.50
2018-06-16T08:54:53.597Z,58.40
2018-06-16T08:57:23.038Z,55.40
2018-06-16T08:59:52.539Z,55.00
2018-06-16T09:02:22.716Z,54.80
2018-06-16T09:04:52.235Z,54.20
2018-06-16T09:07:21.762Z,55.10
2018-06-16T09:09:51.283Z,54.50
2018-06-16T09:12:20.844Z,52.20
2018-06-16T09:14:50.335Z,53.00
2018-06-16T09:17:19.868Z,53.50
2018-06-16T09:19:49.346Z,50.90
2018-06-16T09:22:18.823Z,53.20
2018-06-16T09:24:48.444Z,53.90
2018-06-16T09:27:17.933Z,54.20
2018-06-16T09:29:47.479Z,51.70
2018-06-16T09:32:18.475Z,52.90
2018-06-16T09:34:48.733Z,51.80
2018-06-16T09:37:18.285Z,52.10
2018-06-16T09:39:47.891Z,51.50
2018-06-16T09:42:17.398Z,51.40
2018-06-16T09:44:46.889Z,50.90
2018-06-16T09:49:45.419Z,49.10
2018-06-16T09:52:14.892Z,50.10
2018-06-16T09:54:44.398Z,51.80
2018-06-16T09:57:13.960Z,51.30
2018-06-16T09:59:43.467Z,50.20
2018-06-16T10:02:13.086Z,52.30
2018-06-16T10:04:42.640Z,48.10
2018-06-16T10:07:12.131Z,49.20
2018-06-16T10:09:41.655Z,48.70
2018-06-16T10:12:11.142Z,47.70
2018-06-16T10:14:40.656Z,48.70
2018-06-16T10:17:10.178Z,47.80
2018-06-16T10:19:39.754Z,48.30
2018-06-16T10:22:09.284Z,47.00
2018-06-16T10:24:38.799Z,48.40
2018-06-16T10:27:08.313Z,48.30
2018-06-16T10:29:37.879Z,48.90
2018-06-16T10:32:07.485Z,46.60
2018-06-16T10:34:36.980Z,47.30
2018-06-16T10:37:06.495Z,46.50
2018-06-16T10:39:36.040Z,47.40
2018-06-16T10:42:05.518Z,47.50
2018-06-16T10:44:35.528Z,50.10
2018-06-16T10:47:05.053Z,47.80
2018-06-16T10:49:34.532Z,47.40
2018-06-16T10:52:04.049Z,47.40
2018-06-16T10:54:33.706Z,50.00
2018-06-16T10:57:03.201Z,47.80
2018-06-16T10:59:32.725Z,49.40
2018-06-16T11:02:02.228Z,44.50
2018-06-16T11:04:31.818Z,47.50
2018-06-16T11:07:01.378Z,46.00
2018-06-16T11:09:30.955Z,46.30
2018-06-16T11:12:00.453Z,45.50
2018-06-16T11:16:59.014Z,46.80
2018-06-16T11:19:29.078Z,46.20
2018-06-16T11:21:58.659Z,44.70
2018-06-16T11:24:28.202Z,45.90
2018-06-16T11:26:57.905Z,43.60
2018-06-16T11:29:27.463Z,44.20
2018-06-16T11:31:57.026Z,43.90
2018-06-16T11:34:26.588Z,44.80
2018-06-16T11:39:25.626Z,44.40
2018-06-16T11:41:55.140Z,43.90
2018-06-16T11:44:24.686Z,42.60
2018-06-16T11:46:55.954Z,43.00
2018-06-16T11:49:25.661Z,42.90
2018-06-16T11:51:55.198Z,42.30
2018-06-16T11:54:24.708Z,42.70
2018-06-16T11:56:54.561Z,43.40
2018-06-16T11:59:24.178Z,42.90
2018-06-16T12:01:53.661Z,42.60
2018-06-16T12:04:23.240Z,43.90
2018-06-16T12:06:52.895Z,44.10
2018-06-16T12:09:22.510Z,45.20
2018-06-16T12:11:52.078Z,47.00
2018-06-16T12:14:21.667Z,45.30
2018-06-16T12:16:51.166Z,44.10
2018-06-16T12:19:20.649Z,44.40
2018-06-16T12:21:50.312Z,42.20
2018-06-16T12:24:19.772Z,42.90
2018-06-16T12:26:49.525Z,43.50
2018-06-16T12:29:19.058Z,42.30
2018-06-16T12:31:48.556Z,42.60
2018-06-16T12:34:18.157Z,42.80
2018-06-16T12:36:47.742Z,41.90
2018-06-16T12:39:17.301Z,41.60
2018-06-16T12:41:46.800Z,42.50
2018-06-16T12:44:16.343Z,41.90
2018-06-16T12:46:45.850Z,40.60
2018-06-16T12:49:15.441Z,43.50
2018-06-16T12:51:44.960Z,40.40
2018-06-16T12:54:14.571Z,39.80
2018-06-16T12:56:44.285Z,40.00
2018-06-16T12:59:14.516Z,40.30
2018-06-16T13:01:45.230Z,40.40
2018-06-16T13:04:14.751Z,39.70
2018-06-16T13:06:44.273Z,42.40
2018-06-16T13:09:13.795Z,40.00
2018-06-16T13:11:43.308Z,40.30
2018-06-16T13:14:12.804Z,40.70
2018-06-16T13:16:42.336Z,40.40
2018-06-16T13:19:11.926Z,41.90
2018-06-16T13:21:41.439Z,39.90
2018-06-16T13:24:10.968Z,40.90
2018-06-16T13:26:40.473Z,40.90
2018-06-16T13:29:10.013Z,42.20
2018-06-16T13:31:39.482Z,38.40
2018-06-16T13:34:08.976Z,41.80
2018-06-16T13:36:38.512Z,39.70
2018-06-16T13:39:09.620Z,39.50
2018-06-16T13:41:39.467Z,38.80
2018-06-16T13:46:38.005Z,36.50
2018-06-16T13:49:07.877Z,38.60
2018-06-16T13:51:37.384Z,37.00
2018-06-16T13:54:06.887Z,36.70
2018-06-16T13:56:36.438Z,36.50
2018-06-16T13:59:05.995Z,38.30
2018-06-16T14:01:35.508Z,38.50
2018-06-16T14:06:34.188Z,39.50
2018-06-16T14:09:05.395Z,38.60
2018-06-16T14:11:34.935Z,39.40
2018-06-16T14:14:04.467Z,35.70
2018-06-16T14:16:34.076Z,37.50
2018-06-16T14:19:03.607Z,37.50
2018-06-16T14:21:33.158Z,37.70
2018-06-16T14:24:02.675Z,36.00
2018-06-16T14:26:32.234Z,35.30
2018-06-16T14:29:01.755Z,36.60
2018-06-16T14:31:31.244Z,38.00
2018-06-16T14:34:00.754Z,37.80
2018-06-16T14:36:30.268Z,34.90
2018-06-16T14:38:59.820Z,37.40
2018-06-16T14:41:29.350Z,37.20
2018-06-16T14:43:58.830Z,36.60
2018-06-16T14:46:28.294Z,37.90
2018-06-16T14:48:57.854Z,35.90
2018-06-16T14:51:27.408Z,36.60
2018-06-16T14:53:57.142Z,34.80
2018-06-16T14:56:26.767Z,37.10
2018-06-16T14:58:56.233Z,33.70
2018-06-16T15:01:25.745Z,33.20
2018-06-16T15:03:55.282Z,32.70
2018-06-16T15:06:24.792Z,31.60
2018-06-16T15:08:54.353Z,30.90
2018-06-16T15:11:23.884Z,30.30
2018-06-16T15:13:53.426Z,28.80
2018-06-16T15:16:22.952Z,27.90
2018-06-16T15:18:52.579Z,27.80
2018-06-16T15:21:22.067Z,27.40
2018-06-16T15:23:51.601Z,26.20
2018-06-16T15:26:21.054Z,24.80
2018-06-16T15:28:50.582Z,24.30
2018-06-16T15:31:20.215Z,22.70
2018-06-16T15:33:49.717Z,22.50
2018-06-16T15:36:19.218Z,23.90
2018-06-16T15:38:48.794Z,22.30
2018-06-16T15:41:18.295Z,23.10
2018-06-16T15:43:47.802Z,22.50
2018-06-16T15:46:17.738Z,23.10
2018-06-16T15:48:47.320Z,22.20
2018-06-16T15:51:16.829Z,22.50
2018-06-16T15:53:46.356Z,23.60
2018-06-16T15:56:15.954Z,23.50
2018-06-16T16:01:14.543Z,24.30
2018-06-16T16:03:44.062Z,25.00
2018-06-16T16:08:42.687Z,25.90
2018-06-16T16:11:12.207Z,26.10
2018-06-16T16:13:41.746Z,25.60
2018-06-16T16:16:11.254Z,26.00
2018-06-16T16:18:40.782Z,27.00
2018-06-16T16:21:10.395Z,27.60
2018-06-16T16:23:39.888Z,28.30
2018-06-16T16:26:09.471Z,29.70
2018-06-16T16:28:39.014Z,29.60
2018-06-16T16:31:08.571Z,30.00
2018-06-16T16:33:38.153Z,29.30
2018-06-16T16:36:07.664Z,30.20
2018-06-16T16:38:37.204Z,31.70
2018-06-16T16:41:06.694Z,31.90
2018-06-16T16:43:36.244Z,33.30
2018-06-16T16:46:05.797Z,34.30
2018-06-16T16:48:35.366Z,32.50
2018-06-16T16:51:04.910Z,34.30
2018-06-16T16:53:35.306Z,35.80
2018-06-16T16:56:04.872Z,32.10
2018-06-16T16:58:34.404Z,32.20
2018-06-16T17:01:03.932Z,33.00
2018-06-16T17:03:33.403Z,32.30
2018-06-16T17:06:02.973Z,35.40
2018-06-16T17:08:32.463Z,34.60
2018-06-16T17:11:01.975Z,34.40
2018-06-16T17:13:31.544Z,35.80
2018-06-16T17:16:01.098Z,34.90
2018-06-16T17:20:59.868Z,36.60
2018-06-16T17:23:29.348Z,35.30
2018-06-16T17:25:58.887Z,34.30
2018-06-16T17:28:28.416Z,35.60
2018-06-16T17:30:57.946Z,35.30
2018-06-16T17:33:27.478Z,35.80
2018-06-16T17:35:57.054Z,36.00
2018-06-16T17:38:26.680Z,37.10
2018-06-16T17:40:57.420Z,35.90
2018-06-16T17:43:26.972Z,36.10
2018-06-16T17:45:56.492Z,36.50
2018-06-16T17:48:26.029Z,36.60
2018-06-16T17:50:55.552Z,38.30
2018-06-16T17:53:25.128Z,37.70
2018-06-16T17:55:54.679Z,37.20
2018-06-16T17:58:24.149Z,37.80
2018-06-16T18:00:53.724Z,38.20
2018-06-16T18:03:23.288Z,38.40
2018-06-16T18:05:53.116Z,38.60
2018-06-16T18:08:22.673Z,39.70
2018-06-16T18:10:52.174Z,40.20
2018-06-16T18:13:21.771Z,40.20
2018-06-16T18:15:51.355Z,40.60
2018-06-16T18:18:20.906Z,40.60
2018-06-16T18:20:50.632Z,40.70
2018-06-16T18:23:20.120Z,40.50
2018-06-16T18:25:49.713Z,41.30
2018-06-16T18:28:19.325Z,41.30
2018-06-16T18:30:48.835Z,42.90
2018-06-16T18:33:18.364Z,40.90
2018-06-16T18:35:47.871Z,40.70
2018-06-16T18:38:17.547Z,42.50
2018-06-16T18:40:47.065Z,42.50
2018-06-16T18:43:16.658Z,41.50
2018-06-16T18:45:46.192Z,41.50
2018-06-16T18:48:15.775Z,40.60
2018-06-16T18:50:45.391Z,41.30
2018-06-16T18:53:15.050Z,43.30
2018-06-16T18:55:44.649Z,42.60
2018-06-16T18:58:14.188Z,44.00
2018-06-16T19:00:43.781Z,45.10
2018-06-16T19:03:13.436Z,47.30
2018-06-16T19:05:43.161Z,47.50
2018-06-16T19:08:13.123Z,48.90
2018-06-16T19:10:42.698Z,50.00
2018-06-16T19:13:12.279Z,50.00
2018-06-16T19:15:41.868Z,49.30
2018-06-16T19:18:11.470Z,49.30
2018-06-16T19:20:41.076Z,50.20
2018-06-16T19:23:10.556Z,50.70
2018-06-16T19:25:40.063Z,52.10
2018-06-16T19:28:09.567Z,52.90
2018-06-16T19:30:39.099Z,53.10
2018-06-16T19:33:08.646Z,51.80
2018-06-16T19:35:38.302Z,52.90
2018-06-16T19:38:07.814Z,54.60
2018-06-16T19:40:37.363Z,53.50
2018-06-16T19:43:06.914Z,53.10
2018-06-16T19:45:36.476Z,53.40
2018-06-16T19:48:06.094Z,54.40
2018-06-16T19:50:35.646Z,54.90
2018-06-16T19:53:05.226Z,56.60
2018-06-16T19:55:34.998Z,56.80
2018-06-16T19:58:06.744Z,56.30
2018-06-16T20:00:36.408Z,57.00
2018-06-16T20:03:05.982Z,58.00
2018-06-16T20:05:35.523Z,58.30
2018-06-16T20:08:05.487Z,59.10
2018-06-16T20:10:35.072Z,59.40
2018-06-16T20:13:04.660Z,59.20
2018-06-16T20:15:34.215Z,59.00
2018-06-16T20:18:03.777Z,58.90
2018-06-16T20:20:33.314Z,61.90
2018-06-16T20:23:02.873Z,60.20
2018-06-16T20:25:32.377Z,59.00
2018-06-16T20:28:02.818Z,59.20
2018-06-16T20:30:32.545Z,59.80
2018-06-16T20:33:02.073Z,59.90
2018-06-16T20:38:00.939Z,59.90
2018-06-16T20:40:30.547Z,60.30
2018-06-16T20:43:00.149Z,61.40
2018-06-16T20:45:29.746Z,60.30
2018-06-16T20:47:59.273Z,62.20
2018-06-16T20:50:28.835Z,62.20
2018-06-16T20:52:58.368Z,62.80
2018-06-16T20:55:28.036Z,63.30
2018-06-16T20:57:57.621Z,63.30
2018-06-16T21:00:27.237Z,63.90
2018-06-16T21:02:56.785Z,64.00
2018-06-16T21:05:26.673Z,64.20
2018-06-16T21:07:56.242Z,64.00
2018-06-16T21:10:25.774Z,63.90
2018-06-16T21:12:55.362Z,63.90
2018-06-16T21:15:24.917Z,63.80
2018-06-16T21:17:54.516Z,63.60
2018-06-16T21:20:24.041Z,64.20
2018-06-16T21:22:53.575Z,65.50
2018-06-16T21:25:23.098Z,66.40
2018-06-16T21:27:52.776Z,66.90
2018-06-16T21:30:22.310Z,67.80
2018-06-16T21:32:51.828Z,68.00
2018-06-16T21:35:21.414Z,69.70
2018-06-16T21:37:50.905Z,69.80
2018-06-16T21:40:20.482Z,70.60
2018-06-16T21:42:50.011Z,71.10
2018-06-16T21:45:19.552Z,70.40
2018-06-16T21:47:49.103Z,70.20
2018-06-16T21:50:18.652Z,70.70
2018-06-16T21:52:48.202Z,71.30
2018-06-16T21:55:17.797Z,71.60
2018-06-16T21:57:47.324Z,72.90
2018-06-16T22:02:45.931Z,74.30
2018-06-16T22:05:15.470Z,74.80
2018-06-16T22:07:45.169Z,73.90
2018-06-16T22:10:14.691Z,74.00
2018-06-16T22:12:44.236Z,74.30
2018-06-16T22:15:13.723Z,74.20
2018-06-16T22:17:43.344Z,74.40
2018-06-16T22:20:12.965Z,74.90
2018-06-16T22:25:11.544Z,77.10
2018-06-16T22:27:41.074Z,78.00
2018-06-16T22:30:10.655Z,78.20
2018-06-16T22:32:40.188Z,76.90
2018-06-16T22:35:09.769Z,76.60
2018-06-16T22:37:39.319Z,76.80
2018-06-16T22:40:08.847Z,76.90
2018-06-16T22:42:38.374Z,77.10
2018-06-16T22:47:36.986Z,78.30
2018-06-16T22:50:06.695Z,77.90
2018-06-16T22:52:36.183Z,78.30
2018-06-16T22:55:05.892Z,78.60
2018-06-16T22:57:35.390Z,79.20
2018-06-16T23:00:05.763Z,80.90
2018-06-16T23:02:35.644Z,81.50
2018-06-16T23:05:05.177Z,81.90
2018-06-16T23:07:34.707Z,83.10
2018-06-16T23:10:04.465Z,83.90
2018-06-16T23:15:03.107Z,85.30
2018-06-16T23:17:32.652Z,86.20
2018-06-16T23:20:02.163Z,86.60
2018-06-16T23:22:31.661Z,87.70
2018-06-16T23:25:01.161Z,86.30
2018-06-16T23:27:30.666Z,86.10
2018-06-16T23:30:00.358Z,85.90
2018-06-16T23:32:29.967Z,85.40
2018-06-16T23:34:59.659Z,85.40
2018-06-16T23:37:29.126Z,85.40
2018-06-16T23:39:58.678Z,85.60
2018-06-16T23:42:28.622Z,85.80
2018-06-16T23:44:58.100Z,85.80
2018-06-16T23:47:27.608Z,86.20
2018-06-16T23:49:57.095Z,87.90
2018-06-16T23:52:26.759Z,87.60
2018-06-16T23:54:56.297Z,87.60
2018-06-16T23:57:25.829Z,87.00
2018-06-16T23:59:55.315Z,87.20
